Tiempo atmosférico en la estación meteorológica de León Aeropuerto, León (916 m.)



Fecha
DESCASC
Temp. máxima en grados centígrados (hora)
DESCASC
Temp. mínima en grados centígrados (hora)
DESCASC
Temp. media en grados centígrados
DESCASC
Racha de viento máxima en m/sg (hora)
DESCASC
Velocidad máxima media en intervalos de 10 minutos(hora)
DESCASC
Precipitaciones diarias en mm
DESCASC
Precipitaciones de 00:00 a 06:00 en mm
DESCASC
Precipitaciones de 06:00 a 12:00 en mm
DESCASC
Precipitaciones de 12:00 a 18:00 en mm
DESCASC
Precipitaciones de 18:00 a 24:00 en mm
DESCASC

Gráficas

Temp. máximas Temp. mínimas Temp. medias Precipitaciones Rachas de viento máximas Velocidades máximas media en intervalos de 10 minutos

Datos horarios

Fecha y hora oficial Temperatura (ºC) Velocidad del viento (km/h) Dirección del viento Racha (km/h) Dirección de racha Precipitación (mm) Presión (hPa) Tendencia (hPa) Humedad (%)
2019-04-25 23:00:00 3.9 10 Oeste 41 Oeste 0 908.6 3.3 86
2019-04-25 22:00:00 4.5 26 Oeste 42 Oeste 0.1 907.2 2.3 82
2019-04-25 21:00:00 5.4 30 Oeste 59 Oeste 0 906.2 1.9 69
2019-04-25 20:00:00 6.1 31 Oeste 58 Oeste 0 905.3 2.5 69
2019-04-25 19:00:00 6.6 27 Oeste 45 Oeste 0 904.9 2.4 76
2019-04-25 18:00:00 5.7 32 Oeste 63 Oeste 0.1 904.3 1.9 82
2019-04-25 17:00:00 8.9 37 Sudoeste 59 Sudoeste 0 902.8 0.7 57
2019-04-25 16:00:00 8.6 44 Sudoeste 61 Sudoeste 0 902.5 0.4 57
2019-04-25 15:00:00 9.5 46 Sudoeste 63 Sudoeste 0 902.4 0.4 56
2019-04-25 14:00:00 9.3 40 Sudoeste 54 Sudoeste 0 902.1 0.7 55
2019-04-25 13:00:00 7.1 34 Sudoeste 46 Sudoeste 0 902.1 1.2 65
2019-04-25 12:00:00 5.8 17 Sudoeste 30 Sudoeste 0 902 1.8 72
2019-04-25 11:00:00 5.3 23 Sudoeste 30 Sudoeste 0 901.4 1.9 77
2019-04-25 10:00:00 3.6 15 Sudoeste 28 Sudoeste 0 900.9 2.3 88
2019-04-25 09:00:00 2.3 15 Sudoeste 28 Sudoeste 0 900.2 1.8 95
2019-04-25 08:00:00 1.4 14 Sudoeste 22 Sudoeste 0 899.5 1.2 96
2019-04-25 07:00:00 1.4 17 Sudoeste 26 Sudoeste 0 898.6 0.5 96
2019-04-25 06:00:00 1 15 Sudoeste 24 Sudoeste 0 898.4 0.4 95
2019-04-25 05:00:00 2.1 12 Sur 22 Sudoeste 0.1 898.3 0.5 93
2019-04-25 04:00:00 3 11 Sur 17 Sur 0.2 898.1 1.2 95
2019-04-25 03:00:00 2.7 10 Sudoeste 18 Oeste 0 898 1.5 91
2019-04-25 02:00:00 3 13 Oeste 28 Oeste 0 897.8 1 90
2019-04-25 01:00:00 3.3 8 Oeste 15 Oeste 0 896.9 1.1 94
2019-04-25 00:00:00 3.6 8 Sudoeste 30 Oeste 0.8 896.5 1.7 91
2019-04-24 23:00:00 3.8 18 Oeste 33 Oeste 0.7 896.8 2.6 89
2019-04-24 22:00:00 4.2 23 Oeste 46 Sudoeste 0.3 895.8 2.6 87
2019-04-24 21:00:00 5.8 28 Sudoeste 46 Sudoeste 0.5 894.8 2.1 86
2019-04-24 20:00:00 7.9 16 Sudoeste 54 Sudoeste 0 894.2 1.3 73
2019-04-24 19:00:00 9.3 42 Sudoeste 59 Sudoeste 0 893.2 0.7 64
2019-04-24 18:00:00 9.9 31 Sudoeste 45 Sur 0 892.7 0.3 59
2019-04-24 17:00:00 10.1 14 Oeste 54 Sudoeste 0 892.9 0.2 65
2019-04-24 16:00:00 9 41 Sur 63 Sudoeste 0 892.5 -0.8 74
2019-04-24 15:00:00 8.6 33 Sudoeste 52 Sudoeste 0 892.4 -1.2 79
2019-04-24 14:00:00 6.1 25 Sur 35 Sur 0 892.7 -1.2 92
2019-04-24 13:00:00 3.5 8 Este 21 Sur 0 893.3 -0.5 98
2019-04-24 12:00:00 2 13 Sudeste 22 Sudeste 0.4 893.6 -0.5 97
2019-04-24 11:00:00 0.9 12 Sur 17 Sur 1.1 893.9 0.3 97
2019-04-24 10:00:00 0.2 8 Sudeste 22 Sur 1.6 893.8 -0.3 97
2019-04-24 09:00:00 0.7 19 Sur 28 Sur 2.4 894.1 -0.6 95
2019-04-24 08:00:00 1.8 16 Sur 32 Sur 1.3 893.6 -1.4 95
2019-04-24 07:00:00 2 22 Sur 39 Sur 0.9 894.1 -1.2 93
2019-04-24 06:00:00 2.5 18 Sur 33 Sur 0 894.7 -1.1 92
2019-04-24 05:00:00 2 10 Sur 22 Sur 0 895 -0.8 91
2019-04-24 04:00:00 1.5 14 Sudoeste 21 Sudoeste 0 895.3 -0.4 91
2019-04-24 03:00:00 1.6 13 Sudoeste 18 Sudoeste 0 895.8 0.4 89
2019-04-24 02:00:00 2.4 7 Sudoeste 13 Sur 0 895.8 0.7 85
2019-04-24 01:00:00 2.4 8 Sudoeste 17 Sudoeste 0 895.7 1.5 84
2019-04-24 00:00:00 3 11 Oeste 17 Oeste 0 895.4 1.6 80
2019-04-23 23:00:00 3.3 15 Oeste 30 Oeste 0 895.1 1.8 78
2019-04-23 22:00:00 4.3 21 Oeste 32 Oeste 0 894.2 1.5 73
2019-04-23 21:00:00 5.5 15 Oeste 33 Oeste 0 893.8 1.4 65
2019-04-23 20:00:00 6 20 Oeste 46 Oeste 0 893.3 0.9 65
2019-04-23 19:00:00 6.4 35 Oeste 48 Oeste 0 892.7 0.7 66
2019-04-23 18:00:00 6 32 Oeste 52 Oeste 0 892.4 1.3 71
2019-04-23 17:00:00 5.5 23 Oeste 55 Oeste 0 892.4 0.9 82
2019-04-23 16:00:00 7.5 30 Oeste 61 Oeste 0 892 0.1 66
2019-04-23 15:00:00 10.5 28 Sur 41 Sur 0 891.1 -0.7 46
2019-04-23 14:00:00 9.4 26 Sur 37 Sur 0 891.5 0.1 55
2019-04-23 13:00:00 7.4 25 Sur 37 Sur 0 891.9 0.6 63
2019-04-23 12:00:00 7.2 27 Sur 37 Sudoeste 0 891.8 0.6 66
2019-04-23 11:00:00 6.2 21 Sudoeste 30 Sudoeste 0 891.4 0.6 77
2019-04-23 10:00:00 5.5 23 Sur 33 Sur 0 891.3 1 86
2019-04-23 09:00:00 4.5 23 Sur 32 Sur 0 891.2 1.1 90
2019-04-23 08:00:00 4.6 21 Sur 30 Sudoeste 0 890.8 0.1 92
2019-04-23 07:00:00 5.2 21 Sur 33 Sur 0 890.3 -0.9 89
2019-04-23 06:00:00 6.7 11 Sur 30 Sur 0.4 890.1 -2.1 92
2019-04-23 05:00:00 7.3 9 Sudeste 17 Este 0.2 890.7 -2.2 94
2019-04-23 04:00:00 7.2 9 Sudeste 13 Sudeste 0 891.2 -2 94
2019-04-23 03:00:00 7.3 7 Sudeste 13 Este 0.1 892.2 -0.7 91
2019-04-23 02:00:00 7.4 10 Sur 22 Sudoeste 1.6 892.9 -0.1 91
2019-04-23 01:00:00 7.9 19 Sudoeste 45 Sudoeste 1 893.2 0.4 87
2019-04-23 00:00:00 10.5 22 Sudoeste 37 Sudoeste 0 892.9 0.2 64
2019-04-22 23:00:00 12 29 Sudoeste 39 Sudoeste 0 893 0.1 60
2019-04-22 22:00:00 13 22 Sudoeste 32 Sur 0 892.8 -0.6 50
2019-04-22 21:00:00 13.8 23 Sur 33 Sudoeste 0 892.7 -1.3 48
2019-04-22 20:00:00 14.5 26 Sudoeste 37 Sudoeste 0 892.9 -1.7 43
2019-04-22 19:00:00 15.3 18 Sur 28 Sur 0 893.4 -2.3 43
2019-04-22 18:00:00 15 14 Sudeste 28 Sur 0 894 -2.6 45
2019-04-22 17:00:00 16 17 Sur 32 Sur 0 894.6 -2.9 42
2019-04-22 16:00:00 15.5 15 Sur 30 Sudoeste 0 895.7 -2.9 46
2019-04-22 15:00:00 14.5 10 Sur 26 Sur 0 896.6 -2.8 49
2019-04-22 14:00:00 13.5 15 Sudoeste 28 Sudoeste 0 897.5 -2.5 54
2019-04-22 13:00:00 12.4 13 Sur 21 Sur 0 898.6 -1.9 58
2019-04-22 12:00:00 10.3 9 Sur 15 Sur 0 899.4 -1.4 67
2019-04-22 11:00:00 9.2 5 Sudoeste 9 Sur 0 900 -1 74
2019-04-22 10:00:00 7.7 4 Este 8 Este 0 900.5 -0.6 74
2019-04-22 09:00:00 6.8 0 Calma 8 Oeste 0 900.8 -0.9 79
2019-04-22 08:00:00 5.3 3 Noroeste 9 Noroeste 0 901 -1.7 84
2019-04-22 07:00:00 4.4 5 Noroeste 8 Noroeste 0 901.1 -2.4 79
2019-04-22 06:00:00 5.8 5 Noroeste 8 Noroeste 0 901.7 -2.5 77
2019-04-22 05:00:00 6.4 6 Noroeste 8 Noroeste 0 902.7 -2.3 76
2019-04-22 04:00:00 7 3 Norte -- -- 0 903.5 -2 72
2019-04-22 03:00:00 7.3 4 Norte 8 Nordeste 0 904.2 -1.8 70
2019-04-22 02:00:00 8.2 4 Este 8 Sudoeste 0 905 -1.2 61
2019-04-22 01:00:00 7.8 6 Sudoeste 9 Oeste 0 905.5 -0.4 63
2019-04-22 00:00:00 8.7 5 Norte 9 Noroeste 0 906 0.6 64
2019-04-21 23:00:00 10.1 3 Sudoeste 15 Norte 0 906.2 1 57
2019-04-21 22:00:00 10.8 10 Norte 24 Norte 0 905.9 0.6 55
2019-04-21 21:00:00 13.5 16 Norte 33 Norte 0 905.4 -0.3 44
2019-04-21 20:00:00 15.9 20 Norte 37 Norte 0 905.2 -1 37
2019-04-21 19:00:00 16.7 20 Norte 37 Norte 0 905.3 -1.8 36
2019-04-21 18:00:00 17.4 21 Norte 35 Norte 0 905.7 -2 34
2019-04-21 17:00:00 16.8 15 Norte 39 Nordeste 0 906.2 -2.3 33
2019-04-21 16:00:00 16.4 19 Nordeste 37 Norte 0 907.1 -2.2 33
2019-04-21 15:00:00 16.6 20 Nordeste 32 Norte 0 907.7 -2 34
2019-04-21 14:00:00 16.8 22 Nordeste 32 Nordeste 0 908.5 -1.9 34
2019-04-21 13:00:00 15.7 26 Nordeste 39 Nordeste 0 909.3 -1.3 36
2019-04-21 12:00:00 14.9 24 Nordeste 37 Nordeste 0 909.7 -1.3 42
2019-04-21 11:00:00 14 19 Nordeste 26 Este 0 910.4 -0.8 45
2019-04-21 10:00:00 13.4 15 Norte 24 Norte 0 910.6 -0.6 48
2019-04-21 09:00:00 8.8 12 Norte 18 Norte 0 911 -0.4 63
2019-04-21 08:00:00 5.9 4 Noroeste 17 Norte 0 911.2 -0.8 68
2019-04-21 07:00:00 5.7 11 Norte 15 Norte 0 911.2 -1.3 70
2019-04-21 06:00:00 6.6 11 Norte 15 Norte 0 911.4 -1.4 70
2019-04-21 05:00:00 5.9 10 Noroeste 15 Norte 0 912 -1.5 72
2019-04-21 04:00:00 8.5 9 Este 21 Norte 0 912.5 -1.3 61
2019-04-21 03:00:00 8.1 13 Norte 21 Norte 0 912.8 -1.4 64
2019-04-21 02:00:00 7.2 10 Norte 21 Norte 0 913.5 -0.8 67
2019-04-21 01:00:00 7.2 12 Norte 21 Norte 0 913.8 0 67
2019-04-21 00:00:00 9.3 12 Norte 18 Norte 0 914.2 0.9 58
2019-04-20 23:00:00 11.1 12 Norte 26 Norte 0 914.3 1.3 51
2019-04-20 22:00:00 13.1 19 Norte 30 Norte 0 913.8 1 42
2019-04-20 21:00:00 15.5 17 Norte 32 Norte 0 913.3 0.3 42
2019-04-20 20:00:00 18.2 19 Nordeste 37 Nordeste 0 913 -0.4 30
2019-04-20 19:00:00 19.4 24 Nordeste 35 Nordeste 0 912.8 -1.1 28
2019-04-20 18:00:00 20.3 20 Nordeste 39 Norte 0 913 -1.4 26
2019-04-20 17:00:00 21 24 Nordeste 35 Nordeste 0 913.4 -1.6 25
2019-04-20 16:00:00 20.9 20 Nordeste 32 Nordeste 0 913.9 -1.6 26
2019-04-20 15:00:00 20.4 18 Nordeste 39 Este 0 914.4 -1.4 29
2019-04-20 14:00:00 20.1 25 Nordeste 42 Nordeste 0 915 -1.1 30
2019-04-20 13:00:00 19.3 28 Nordeste 45 Nordeste 0 915.5 -0.5 32
2019-04-20 12:00:00 17.8 18 Nordeste 28 Norte 0 915.8 -0.3 38
2019-04-20 11:00:00 16.6 6 Este 9 Este 0 916.1 -0.2 46
2019-04-20 10:00:00 13.4 9 Noroeste 15 Noroeste 0 916 -0.4 57
2019-04-20 09:00:00 9.2 8 Noroeste 13 Oeste 0 916.1 -0.7 77
2019-04-20 08:00:00 7 7 Norte 13 Norte 0 916.3 -0.9 78
2019-04-20 07:00:00 6.8 8 Norte 17 Norte 0 916.4 -1 77
2019-04-20 06:00:00 6.3 13 Norte 17 Norte 0 916.8 -0.7 80
2019-04-20 05:00:00 7.9 10 Norte 13 Norte 0 917.2 -0.8 73
2019-04-20 04:00:00 7.9 10 Norte 15 Norte 0 917.4 -0.9 74
2019-04-20 03:00:00 9.2 8 Nordeste 11 Nordeste 0 917.5 -0.5 68
2019-04-20 02:00:00 9.7 7 Este 15 Este 0 918 0.6 65
2019-04-20 01:00:00 11.2 7 Nordeste 13 Norte 0 918.3 1.4 52
2019-04-20 00:00:00 12.3 12 Nordeste 21 Nordeste 0 918 1.6 47
2019-04-19 23:00:00 13.4 10 Nordeste 22 Nordeste 0 917.4 1.6 47
2019-04-19 22:00:00 13.1 11 Nordeste 28 Este 0 916.9 1.8 50
2019-04-19 21:00:00 13.9 12 Nordeste 28 Nordeste 0 916.4 1.7 49
2019-04-19 20:00:00 14.5 20 Este 39 Este 0 915.8 1 48
2019-04-19 19:00:00 14 17 Este 30 Este 0 915.1 0.7 60
2019-04-19 18:00:00 14.3 19 Este 32 Este 0 914.7 0.4 61
2019-04-19 17:00:00 12.9 19 Este 48 Este 0 914.8 0.7 62
2019-04-19 16:00:00 13.8 22 Este 45 Este 0 914.4 0.6 61
2019-04-19 15:00:00 13.4 25 Este 37 Este 0 914.3 0.9 62
2019-04-19 14:00:00 12.4 27 Este 41 Este 0 914.1 1 64
2019-04-19 13:00:00 11.9 26 Este 48 Este 0 913.8 1.3 67
2019-04-19 12:00:00 10.8 29 Este 42 Este 0 913.4 1.8 74
2019-04-19 11:00:00 9.6 26 Este 41 Este 0 913.1 2 81
2019-04-19 10:00:00 8 14 Nordeste 35 Este 0 912.5 2.5 94
2019-04-19 09:00:00 7.9 16 Nordeste 28 Nordeste 0 911.6 1.9 90
2019-04-19 08:00:00 7.7 18 Nordeste 37 Este 0 911.1 1.6 91
2019-04-19 07:00:00 7.8 22 Este 35 Este 0 910 0.8 90
2019-04-19 06:00:00 7.6 19 Nordeste 35 Nordeste 0 909.7 0.4 93
2019-04-19 05:00:00 7.4 22 Nordeste 33 Nordeste 0.8 909.5 -0.7 92
2019-04-19 04:00:00 7.3 12 Norte 24 Norte 0.8 909.2 -0.9 95
2019-04-19 03:00:00 7.3 10 Norte 21 Nordeste 1.1 909.3 -0.8 93
2019-04-19 02:00:00 7.6 13 Nordeste 28 Nordeste 1 910.2 0 90
2019-04-19 01:00:00 7.4 10 Norte 15 Norte 0.7 910.1 0.2 92
2019-04-19 00:00:00 7.6 8 Norte 21 Norte 0 910.1 0.5 89
2019-04-18 23:00:00 7.2 11 Norte 22 Norte 0 910.2 1.1 91
2019-04-18 22:00:00 7.3 13 Norte 18 Norte 0.1 909.9 1.1 94
2019-04-18 21:00:00 7.7 14 Norte 28 Nordeste 0.8 909.6 1.1 93
2019-04-18 20:00:00 8.5 13 Nordeste 26 Nordeste 1.3 909.1 0.7 93
2019-04-18 19:00:00 8.8 8 Este 17 Este 0.6 908.8 0.3 90
2019-04-18 18:00:00 8.8 8 Este 11 Este 3.4 908.5 -0.2 91
2019-04-18 17:00:00 9.3 4 Norte 22 Este 0.8 908.4 -0.8 85
2019-04-18 16:00:00 10.4 6 Este 18 Este 0 908.5 -1 77
2019-04-18 15:00:00 11 6 Este 11 Este 0 908.7 -0.6 66
2019-04-18 14:00:00 10.8 5 Este 11 Nordeste 0 909.2 0.2 76
2019-04-18 13:00:00 8.9 7 Nordeste 11 Este 0 909.5 0.5 85
2019-04-18 12:00:00 8.3 2 Sudeste 9 Nordeste 0.2 909.3 0.7 88
2019-04-18 11:00:00 8.1 6 Este 11 Sudeste 0 909 1 88
2019-04-18 10:00:00 7.5 10 Este 13 Este 0 909 1.7 92
2019-04-18 09:00:00 7.4 7 Sudeste 13 Sur 0 908.6 1.8 94
2019-04-18 08:00:00 7 5 Sudeste 13 Sur 0 908 1.4 96
2019-04-18 07:00:00 7 9 Sudeste 15 Sur 0 907.3 1 96
2019-04-18 06:00:00 7.3 10 Sur 18 Sur 0 906.8 0.3 94
2019-04-18 05:00:00 7.7 16 Sur 24 Sur 0.1 906.6 0.2 96
2019-04-18 04:00:00 8.2 15 Sur 24 Sur 1 906.3 0 96
2019-04-18 03:00:00 8.4 14 Sur 26 Sudeste 0 906.5 0.8 93
2019-04-18 02:00:00 8.5 10 Sudeste 22 Sudeste 0 906.4 0.5 91
2019-04-18 01:00:00 8.9 14 Sudeste 22 Sudeste 1 906.3 1.3 90
2019-04-18 00:00:00 9.3 5 Sur 32 Sudoeste 0.1 905.7 1.9 85
2019-04-17 23:00:00 10 24 Sudoeste 46 Sudoeste 0 905.9 2.3 79
2019-04-17 22:00:00 11.4 33 Sudoeste 42 Sudoeste 0 905 0.9 76
2019-04-17 21:00:00 14.2 17 Sudeste 35 Sur 0 903.8 0.2 51
2019-04-17 20:00:00 13.9 23 Sur 46 Sur 0.2 903.6 -0.3 54
2019-04-17 19:00:00 15.4 24 Sur 37 Sur 0.1 904.1 -0.6 54
2019-04-17 18:00:00 17 21 Sudeste 32 Sudeste 0 903.6 -1.8 46
2019-04-17 17:00:00 16.7 20 Sudeste 30 Este 0 903.9 -2 46
2019-04-17 16:00:00 15.3 17 Este 28 Este 0 904.7 -1.8 54
2019-04-17 15:00:00 14.7 15 Este 28 Este 0 905.4 -0.8 57
2019-04-17 14:00:00 14.8 17 Sudeste 35 Sur 0 905.9 -0.4 56
2019-04-17 13:00:00 14.4 17 Sur 28 Sur 0 906.5 0 57
2019-04-17 12:00:00 14.1 15 Sudeste 28 Sudeste 0 906.2 -0.1 58
2019-04-17 11:00:00 12.2 12 Sudeste 22 Sudeste 0 906.3 0.1 62
2019-04-17 10:00:00 10.1 14 Este 21 Sudeste 0 906.5 0.6 69
2019-04-17 09:00:00 8.7 9 Este 15 Sudeste 0 906.3 -0.1 72
2019-04-17 08:00:00 8.2 12 Sudeste 18 Sudeste 0 906.2 0 72
2019-04-17 07:00:00 7.9 10 Este 18 Sudeste 0 905.9 -0.8 71
2019-04-17 06:00:00 8.9 11 Este 22 Este 0 906.4 -0.8 66
2019-04-17 05:00:00 9.6 11 Este 21 Este 0 906.2 -1.5 64
2019-04-17 04:00:00 9.2 13 Nordeste 15 Nordeste 0 906.7 -2 61
2019-04-17 03:00:00 9.5 10 Nordeste 17 Este 0 907.2 -1.6 56
2019-04-17 02:00:00 10.6 12 Nordeste 17 Nordeste 0 907.7 -1.4 48
2019-04-17 01:00:00 9.4 9 Norte 13 Nordeste 0 908.7 -0.7 57
2019-04-17 00:00:00 8.8 8 Norte 13 Nordeste 0 908.8 -0.5 62
2019-04-16 23:00:00 11.6 10 Nordeste 13 Nordeste 0 909.1 -0.4 50
2019-04-16 22:00:00 12.9 8 Este 13 Este 0 909.4 -0.5 43
2019-04-16 21:00:00 14.4 9 Este 22 Sudeste 0 909.3 -0.9 37
2019-04-16 20:00:00 16 15 Sudeste 24 Sur 0 909.5 -1.3 32
2019-04-16 19:00:00 16.4 17 Sudeste 26 Sur 0 909.9 -1.5 30
2019-04-16 18:00:00 16 14 Sudeste 30 Sudeste 0 910.2 -1.9 32
2019-04-16 17:00:00 15.8 18 Sudeste 30 Sudeste 0 910.8 -1.8 33
2019-04-16 16:00:00 14.9 12 Sur 28 Sur 0 911.4 -1.5 40
2019-04-16 15:00:00 13.8 10 Sur 24 Sur 0 912.1 -1.3 45
2019-04-16 14:00:00 12.4 10 Sur 18 Sur 0 912.6 -0.9 48
2019-04-16 13:00:00 11.7 5 Sur 18 Sur 0 912.9 -0.8 54
2019-04-16 12:00:00 10.2 6 Este 17 Sudeste 0 913.4 -0.4 69
2019-04-16 11:00:00 8.5 6 Este 15 Este 0 913.5 0 77
2019-04-16 10:00:00 6.9 9 Nordeste 13 Nordeste 0 913.7 0.5 89
2019-04-16 09:00:00 5.5 9 Norte 13 Norte 0 913.8 0.8 88
2019-04-16 08:00:00 4.5 8 Nordeste 11 Nordeste 0 913.5 0.9 89
2019-04-16 07:00:00 3 5 Nordeste 13 Norte 0 913.2 0.4 93
2019-04-16 06:00:00 1 7 Norte 11 Norte 0 913 0.1 88
2019-04-16 05:00:00 1.4 3 Nordeste 11 Norte 0 912.6 0.1 87
2019-04-16 04:00:00 2.1 12 Noroeste 15 Noroeste 0 912.8 0.6 84
2019-04-16 03:00:00 3.6 9 Oeste 18 Oeste 0 912.9 1.1 80
2019-04-16 02:00:00 4.1 10 Noroeste 18 Oeste 0 912.5 1.2 80
2019-04-16 01:00:00 4.4 14 Oeste 18 Oeste 0 912.2 2.1 83
2019-04-16 00:00:00 5.7 14 Oeste 22 Oeste 0 911.8 2.4 83
2019-04-15 23:00:00 6.7 14 Oeste 21 Oeste 0 911.3 2.6 79
2019-04-15 22:00:00 8.2 15 Oeste 35 Oeste 0 910.1 2.2 72
2019-04-15 21:00:00 9.5 18 Oeste 35 Oeste 0 909.4 2.2 71
2019-04-15 20:00:00 11.3 22 Oeste 48 Oeste 0 908.7 1.8 66
2019-04-15 19:00:00 12.6 30 Oeste 48 Oeste 0 907.9 1.6 55
2019-04-15 18:00:00 12.4 33 Oeste 46 Oeste 0 907.2 1.7 60
2019-04-15 17:00:00 10.9 33 Oeste 54 Oeste 0 906.9 1.2 69
2019-04-15 16:00:00 12.9 33 Oeste 74 Sudoeste 0 906.3 0.5 66
2019-04-15 15:00:00 16 35 Sudoeste 61 Sudoeste 0 905.5 0.1 53
2019-04-15 14:00:00 14.9 42 Sudoeste 61 Sudoeste 0 905.7 -0.1 67
2019-04-15 13:00:00 11.9 18 Sudoeste 67 Oeste 4.8 905.8 -0.5 97
2019-04-15 12:00:00 16.1 32 Sur 46 Sur 0 905.4 -1.6 70
2019-04-15 11:00:00 13.3 18 Sudeste 28 Sudeste 0.1 905.8 -1.6 82
2019-04-15 10:00:00 12.4 14 Sudeste 22 Sudeste 0 906.3 -1.5 84
2019-04-15 09:00:00 11.3 11 Sudeste 17 Sudeste 0 907 -1.2 85
2019-04-15 08:00:00 10.8 5 Sudeste 9 Este 0 907.4 -1.3 85
2019-04-15 07:00:00 10.9 6 Nordeste 9 Este 0 907.8 -1.7 83
2019-04-15 06:00:00 11.2 8 Este 9 Este 0 908.2 -1.8 81
2019-04-15 05:00:00 11.3 5 Norte 13 Nordeste 0 908.7 -1.8 81
2019-04-15 04:00:00 11.3 7 Norte 9 Norte 0 909.5 -1.2 81
2019-04-15 03:00:00 11.3 5 Nordeste 9 Norte 0 910 -1 80
2019-04-15 02:00:00 11.7 8 Nordeste 9 Nordeste 0 910.5 -0.4 78
2019-04-15 01:00:00 10.8 5 Sudeste 8 Sudeste 0 910.7 -0.3 79
2019-04-15 00:00:00 12.5 0 Calma 9 Sudoeste 0 911 0.3 72
2019-04-14 23:00:00 13.6 6 Sur 22 Sur 0 910.9 0.5 68
2019-04-14 22:00:00 14.9 16 Sur 24 Sur 0 911 0.5 63
2019-04-14 21:00:00 16.4 15 Sur 30 Sur 0 910.7 0 58
2019-04-14 20:00:00 18.3 19 Sur 28 Sur 0 910.4 -0.7 50
2019-04-14 19:00:00 19.3 13 Sur 24 Sur 0 910.5 -1.3 43
2019-04-14 18:00:00 19.8 14 Sur 24 Sudoeste 0 910.7 -1.5 43
2019-04-14 17:00:00 18.9 16 Sudoeste 30 Sudoeste 0 911.1 -1.1 47
2019-04-14 16:00:00 19.3 17 Sudoeste 26 Sudoeste 0 911.8 -0.7 47
2019-04-14 15:00:00 18.4 11 Oeste 24 Sur 0 912.2 -0.4 50
2019-04-14 14:00:00 18 14 Sudoeste 26 Sudoeste 0 912.2 -0.4 52
2019-04-14 13:00:00 16.9 8 Sudoeste 17 Sur 0 912.5 0 54
2019-04-14 12:00:00 16.3 6 Sur 22 Sur 0 912.6 -0.1 60
2019-04-14 11:00:00 15.1 9 Sudeste 13 Sudeste 0 912.6 0.4 61
2019-04-14 10:00:00 12.4 5 Este 13 Noroeste 0 912.5 0.7 70
2019-04-14 09:00:00 9.5 8 Noroeste 15 Oeste 0 912.7 0.6 82
2019-04-14 08:00:00 7.6 9 Oeste 17 Oeste 0 912.2 -0.1 88
2019-04-14 07:00:00 7.7 11 Oeste 17 Oeste 0 911.8 -0.6 90
2019-04-14 06:00:00 9.6 7 Oeste 13 Oeste 0 912.1 -0.6 82
2019-04-14 05:00:00 10.5 9 Noroeste 17 Oeste 0 912.3 -0.7 78
2019-04-14 04:00:00 10.6 12 Oeste 21 Oeste 0 912.4 -0.7 78
2019-04-14 03:00:00 11.5 14 Oeste 22 Oeste 0 912.7 -0.4 72
2019-04-14 02:00:00 12.4 19 Oeste 32 Oeste 0 913 -0.1 64
2019-04-14 01:00:00 13.4 20 Oeste 30 Oeste 0 913.1 0.4 58
2019-04-14 00:00:00 13.7 13 Oeste 24 Oeste 0 913.1 0.9 55
2019-04-13 23:00:00 13.9 13 Oeste 22 Oeste 0 913.1 0.9 51
2019-04-13 22:00:00 14.6 12 Oeste 18 Oeste 0 912.7 0.6 48
2019-04-13 21:00:00 15.7 13 Oeste 24 Oeste 0 912.2 -0.1 42
2019-04-13 20:00:00 17.2 11 Oeste 17 Oeste 0 912.2 -0.2 37
2019-04-13 19:00:00 17.8 9 Sudoeste 30 Oeste 0 912.1 -0.7 35
2019-04-13 18:00:00 17.6 14 Sudoeste 28 Sur 0 912.3 -1.1 34
2019-04-13 17:00:00 18.5 19 Sudoeste 33 Sudoeste 0 912.4 -1.4 32
2019-04-13 16:00:00 18 18 Sudoeste 35 Sudoeste 0 912.8 -1.4 32
2019-04-13 15:00:00 16.6 13 Sudoeste 24 Sudoeste 0 913.4 -1.1 33
2019-04-13 14:00:00 15.7 13 Sur 26 Nordeste 0 913.8 -0.8 39
2019-04-13 13:00:00 14.2 9 Sudeste 18 Sudeste 0 914.2 -0.4 42
2019-04-13 12:00:00 12.5 8 Sudeste 18 Este 0 914.5 0 44
2019-04-13 11:00:00 11.3 7 Sudeste 15 Sudeste 0 914.6 0.3 47
2019-04-13 10:00:00 9.3 5 Nordeste 9 Nordeste 0 914.6 0.6 51
2019-04-13 09:00:00 6.5 7 Norte 11 Norte 0 914.5 0.5 64
2019-04-13 08:00:00 3.6 6 Norte 11 Norte 0 914.3 0.4 70
2019-04-13 07:00:00 3.8 8 Norte 13 Norte 0 914 -0.2 68
2019-04-13 06:00:00 4 12 Norte 17 Norte 0 914 -0.4 67
2019-04-13 05:00:00 4.8 11 Norte 15 Norte 0 913.9 -0.6 65
2019-04-13 04:00:00 4 11 Norte 15 Norte 0 914.2 -0.5 64
2019-04-13 03:00:00 4.5 9 Norte 15 Norte 0 914.4 0.1 61
2019-04-13 02:00:00 5.1 10 Norte 15 Norte 0 914.5 0.4 57
2019-04-13 01:00:00 5.6 9 Norte 15 Norte 0 914.7 1.1 55
2019-04-13 00:00:00 6.6 5 Norte 8 Norte 0 914.3 1.5 51
2019-04-12 23:00:00 8.1 5 Nordeste 8 Este 0 914.1 1.4 47
2019-04-12 22:00:00 11.5 0 Calma 13 Sudeste 0 913.6 0.8 33
2019-04-12 21:00:00 13.2 6 Sudeste 13 Sur 0 912.8 -0.1 26
2019-04-12 20:00:00 15.1 11 Sudeste 21 Sudeste 0 912.7 -0.5 22
2019-04-12 19:00:00 15.4 11 Sudeste 22 Sudeste 0 912.8 -1.2 22
2019-04-12 18:00:00 15.5 12 Sudeste 21 Sudeste 0 912.9 -1.4 26
2019-04-12 17:00:00 15 9 Sur 18 Sudoeste 0 913.2 -1.7 27
2019-04-12 16:00:00 13.8 6 Este 13 Este 0 914 -1.7 36
2019-04-12 15:00:00 12.4 6 Sudeste 15 Este 0 914.3 -1.6 44
2019-04-12 14:00:00 10.2 6 Norte 24 Sudoeste 0 914.9 -1.2 55
2019-04-12 13:00:00 8.2 13 Sudoeste 22 Sudoeste 0 915.7 0.1 67
2019-04-12 12:00:00 6.1 4 Oeste 15 Oeste 0 915.9 0.3 75
2019-04-12 11:00:00 4.3 5 Este 11 Nordeste 0 916.1 0.9 85
2019-04-12 10:00:00 3.9 5 Norte 9 Nordeste 0 915.6 0.8 90
2019-04-12 09:00:00 2.6 5 Norte 13 Norte 0 915.6 0.6 93
2019-04-12 08:00:00 0 5 Norte 11 Oeste 0 915.2 0.1 91
2019-04-12 07:00:00 -0.2 4 Norte 8 Norte 0 914.8 -0.3 87
2019-04-12 06:00:00 0.1 0 Calma 15 Noroeste 0 915 -0.4 88
2019-04-12 05:00:00 0.6 11 Noroeste 15 Noroeste 0 915.1 -0.2 85
2019-04-12 04:00:00 1.4 9 Oeste 11 Oeste 0 915.1 -0.1 82
2019-04-12 03:00:00 2.3 6 Sudoeste 9 Sudoeste 0 915.4 0.2 79
2019-04-12 02:00:00 3.1 4 Sur 9 Norte 0 915.3 0 77
2019-04-12 01:00:00 3.1 8 Norte 13 Norte 0 915.2 0.3 78
2019-04-12 00:00:00 3.8 11 Norte 15 Norte 0 915.2 0.6 78
2019-04-11 23:00:00 4.9 9 Norte 18 Norte 0 915.3 1.1 75
2019-04-11 22:00:00 6.3 13 Norte 26 Norte 0 914.9 0.8 69
2019-04-11 21:00:00 7.6 18 Norte 35 Norte 0 914.6 0.7 60
2019-04-11 20:00:00 10.5 22 Norte 32 Norte 0 914.2 0.2 50
2019-04-11 19:00:00 12.4 15 Norte 26 Norte 0 914.1 -0.2 41
2019-04-11 18:00:00 12.5 18 Norte 33 Nordeste 0 913.9 -0.6 41
2019-04-11 17:00:00 11.6 20 Norte 33 Nordeste 0 914 -0.6 44
2019-04-11 16:00:00 11.3 17 Nordeste 28 Norte 0 914.3 -0.4 44
2019-04-11 15:00:00 10.7 15 Nordeste 28 Norte 0 914.5 -0.4 45
2019-04-11 14:00:00 10.9 13 Norte 35 Norte 0 914.6 -0.2 45
2019-04-11 13:00:00 10.3 17 Norte 35 Nordeste 0 914.7 -- 45
2019-04-11 12:00:00 9.3 6 Norte 22 Nordeste 0 914.9 -- 48
2019-04-11 11:00:00 8 12 Nordeste 18 Norte 0 914.8 -- 55
2019-04-11 10:00:00 -- -- -- -- -- -- -- -- --
2019-04-11 09:00:00 -- -- -- -- -- -- -- -- --
2019-04-11 08:00:00 -- -- -- -- -- -- -- -- --
2019-04-11 07:00:00 -- -- -- -- -- -- -- -- --
2019-04-11 06:00:00 -- -- -- -- -- -- -- -- --
2019-04-11 05:00:00 0.7 11 Noroeste 17 Norte 0 914.1 -0.2 88
2019-04-11 04:00:00 1.2 12 Noroeste 18 Noroeste 0 914.1 0 87
2019-04-11 03:00:00 1.4 12 Noroeste 18 Noroeste 0 914.2 0.1 84
2019-04-11 02:00:00 2.4 13 Noroeste 17 Noroeste 0 914.3 0.4 85
2019-04-11 01:00:00 2.8 9 Noroeste 18 Norte 0 914.1 0.6 83
2019-04-11 00:00:00 3.6 12 Noroeste 17 Noroeste 0 914.1 1.7 80
2019-04-10 23:00:00 4.4 12 Norte 21 Noroeste 0 913.9 2.2 73
2019-04-10 22:00:00 5.2 10 Norte 22 Norte 0 913.5 2.7 69
2019-04-10 21:00:00 6.8 15 Norte 35 Norte 0 912.4 1.9 63
2019-04-10 20:00:00 8.7 22 Norte 41 Norte 0 911.7 1.6 57
2019-04-10 19:00:00 10.1 24 Norte 39 Norte 0 910.8 1 50
2019-04-10 18:00:00 11.1 24 Norte 39 Nordeste 0 910.5 1 53
2019-04-10 17:00:00 11.6 20 Norte 42 Norte 0 910.1 0.6 51
2019-04-10 16:00:00 10.9 22 Norte 42 Norte 0 909.8 0.4 55
2019-04-10 15:00:00 9.8 18 Norte 33 Norte 0 909.5 0.4 61
2019-04-10 14:00:00 9.1 14 Nordeste 24 Nordeste 0 909.5 0.7 67
2019-04-10 13:00:00 8.1 8 Nordeste 21 Oeste 0.2 909.4 1 78
2019-04-10 12:00:00 7.3 10 Oeste 24 Oeste 0 909.1 0.9 75
2019-04-10 11:00:00 6.2 19 Oeste 30 Oeste 0 908.8 1 79
2019-04-10 10:00:00 5.3 18 Oeste 33 Oeste 0 908.4 0.9 81
2019-04-10 09:00:00 3.6 9 Oeste 17 Oeste 0 908.2 0.9 89
2019-04-10 08:00:00 3.1 13 Oeste 18 Oeste 0 907.8 0.3 89
2019-04-10 07:00:00 3.4 12 Oeste 24 Oeste 0 907.5 0 89
2019-04-10 06:00:00 3.6 15 Oeste 24 Oeste 0 907.3 -0.3 88
2019-04-10 05:00:00 3.7 16 Oeste 24 Oeste 0 907.5 0 91
2019-04-10 04:00:00 2.8 11 Oeste 24 Oeste 0 907.5 0.1 91
2019-04-10 03:00:00 2.5 15 Oeste 24 Oeste 0 907.6 0.4 91
2019-04-10 02:00:00 2.4 14 Oeste 28 Oeste 0 907.5 0.3 91
2019-04-10 01:00:00 3.3 14 Oeste 32 Oeste 0 907.4 0.6 90
2019-04-10 00:00:00 3.9 22 Oeste 33 Oeste 0 907.2 0.9 89
2019-04-09 23:00:00 4.5 22 Oeste 30 Oeste 0 907.2 1.3 85
2019-04-09 22:00:00 5.3 18 Oeste 41 Oeste 0 906.8 1.2 79
2019-04-09 21:00:00 5.6 22 Oeste 41 Oeste 0 906.3 0.8 77
2019-04-09 20:00:00 7.3 32 Oeste 46 Oeste 0 905.9 0.4 71
2019-04-09 19:00:00 8.4 21 Oeste 45 Oeste 0 905.6 -0.3 60
2019-04-09 18:00:00 9.8 31 Oeste 50 Oeste 0 905.5 -0.4 51
2019-04-09 17:00:00 9.1 30 Oeste 48 Oeste 0 905.5 -0.3 62
2019-04-09 16:00:00 9.3 28 Oeste 42 Oeste 0 905.9 0.1 61
2019-04-09 15:00:00 8.3 23 Oeste 46 Oeste 0 905.9 0.3 66
2019-04-09 14:00:00 7.5 23 Oeste 35 Oeste 0 905.8 0.4 74
2019-04-09 13:00:00 5.5 23 Oeste 32 Sudoeste 0 905.8 0.5 84
2019-04-09 12:00:00 4.7 9 Oeste 21 Oeste 0.2 905.6 0.4 89
2019-04-09 11:00:00 4 14 Sudoeste 30 Sudoeste 1.6 905.4 0.5 92
2019-04-09 10:00:00 4.3 14 Sur 30 Sur 1 905.3 0.2 95
2019-04-09 09:00:00 4.2 17 Sur 24 Sur 0 905.2 -0.3 96
2019-04-09 08:00:00 3.9 13 Sur 18 Sur 0.2 904.9 -0.9 97
2019-04-09 07:00:00 3.6 12 Sur 17 Sur 0 905.1 -0.9 94
2019-04-09 06:00:00 3.7 10 Sur 15 Sur 0 905.5 -0.7 90
2019-04-09 05:00:00 3.6 9 Sur 11 Sur 0 905.8 -0.4 89
2019-04-09 04:00:00 3.1 7 Sudoeste 13 Sudoeste 0 906 -0.6 87
2019-04-09 03:00:00 3.3 9 Sudoeste 18 Sudoeste 0 906.2 -0.2 82
2019-04-09 02:00:00 3.4 12 Sudoeste 17 Oeste 0 906.2 -0.3 84
2019-04-09 01:00:00 3.6 13 Sudoeste 21 Sudoeste 0 906.6 0.4 83
2019-04-09 00:00:00 3.7 12 Sudoeste 18 Sudoeste 0 906.4 0.6 87
2019-04-08 23:00:00 4.1 13 Sudoeste 24 Sudoeste 0 906.5 0.9 82
2019-04-08 22:00:00 5 11 Sudoeste 30 Sudoeste 0 906.2 0.7 76
2019-04-08 21:00:00 7.3 22 Sudoeste 42 Sudoeste 0 905.8 0.2 64
2019-04-08 20:00:00 10 26 Sudoeste 41 Sudoeste 0 905.6 -0.3 45
2019-04-08 19:00:00 10.8 25 Sudoeste 39 Sudoeste 0 905.5 -1 38
2019-04-08 18:00:00 11.8 23 Sudoeste 35 Sudoeste 0 905.6 -1.3 45
2019-04-08 17:00:00 10.8 17 Sudoeste 28 Sur 0 905.9 -1.2 49
2019-04-08 16:00:00 11 8 Sur 22 Sur 0 906.5 -0.6 48
2019-04-08 15:00:00 9.3 11 Sur 28 Oeste 0 906.9 -0.3 56
2019-04-08 14:00:00 8.8 12 Oeste 39 Sudoeste 0 907.1 0.4 59
2019-04-08 13:00:00 9.3 18 Sudoeste 33 Oeste 0 907.1 0.7 57
2019-04-08 12:00:00 8.6 20 Oeste 33 Oeste 0 907.2 1 60
2019-04-08 11:00:00 7.2 20 Oeste 41 Oeste 0 906.7 1.1 72
2019-04-08 10:00:00 5.8 24 Oeste 39 Oeste 0 906.4 1.2 85
2019-04-08 09:00:00 4.1 7 Sudoeste 11 Sudoeste 0 906.2 1.3 96
2019-04-08 08:00:00 3.4 3 Oeste 8 Norte 0 905.6 0.7 98
2019-04-08 07:00:00 3.5 0 Calma 11 Norte 0 905.2 0.4 98
2019-04-08 06:00:00 3.7 8 Norte 13 Norte 0 904.9 0 99
2019-04-08 05:00:00 3.4 8 Norte 11 Norte 0 904.9 -0.1 99
2019-04-08 04:00:00 3.1 8 Norte 13 Norte 0.4 904.8 -0.6 99
2019-04-08 03:00:00 2.8 9 Norte 15 Nordeste 0.4 904.9 -0.9 99
2019-04-08 02:00:00 2.7 13 Nordeste 18 Nordeste 0 905 -1.2 99
2019-04-08 01:00:00 2.7 9 Norte 15 Norte 0.6 905.4 -0.7 98
2019-04-08 00:00:00 3.6 10 Norte 15 Norte 1.3 905.8 0 97
2019-04-07 23:00:00 4.1 9 Este 13 Este 1.9 906.2 0.2 96
2019-04-07 22:00:00 4.3 7 Sudeste 18 Sur 1.6 906.1 0.4 95
2019-04-07 21:00:00 4.3 9 Sudeste 24 Sur 0.9 905.8 0.6 93
2019-04-07 20:00:00 4.3 14 Sur 30 Sudoeste 1.3 906 1.3 91
2019-04-07 19:00:00 4.7 21 Sudoeste 42 Sudoeste 0.5 905.7 1.3 88
2019-04-07 18:00:00 6.6 28 Sudoeste 45 Sudoeste 0 905.2 0.5 73
2019-04-07 17:00:00 9.1 28 Sudoeste 45 Sudoeste 0 904.7 -0.3 52
2019-04-07 16:00:00 10.7 15 Sur 30 Sur 0 904.4 -0.5 36
2019-04-07 15:00:00 9.9 17 Sur 39 Sudoeste 0 904.7 0 41
2019-04-07 14:00:00 8.3 21 Sudoeste 37 Oeste 0 905 0.4 49
2019-04-07 13:00:00 7.6 18 Sudoeste 30 Sudoeste 0 904.9 0.9 52
2019-04-07 12:00:00 6.7 16 Sudoeste 30 Sudoeste 0 904.7 1.3 57
2019-04-07 11:00:00 5 16 Oeste 28 Oeste 0 904.6 2 61
2019-04-07 10:00:00 3.7 9 Oeste 22 Oeste 0 904 2.1 61
2019-04-07 09:00:00 0.7 14 Oeste 28 Oeste 0 903.4 2.4 82
2019-04-07 08:00:00 -0.3 22 Oeste 28 Oeste 0 902.6 2 89
2019-04-07 07:00:00 -0.1 15 Oeste 30 Oeste 0 901.9 1.7 92
2019-04-07 06:00:00 0.3 18 Oeste 24 Oeste 0 901 0.7 92
2019-04-07 05:00:00 0.4 16 Oeste 28 Oeste 0 900.6 0.8 91
2019-04-07 04:00:00 0.6 19 Oeste 32 Oeste 0 900.2 0.6 89
2019-04-07 03:00:00 1.2 22 Oeste 35 Oeste 0 900.3 1.1 89
2019-04-07 02:00:00 1.2 14 Oeste 28 Oeste 0 899.8 0.9 89
2019-04-07 01:00:00 1.3 15 Oeste 26 Oeste 0 899.6 1.2 88
2019-04-07 00:00:00 1.4 12 Oeste 26 Oeste 0 899.2 1.6 88
2019-04-06 23:00:00 1.8 16 Oeste 33 Oeste 0 898.9 2.1 85
2019-04-06 22:00:00 2.6 21 Oeste 30 Oeste 0 898.4 2.5 74
2019-04-06 21:00:00 2.8 22 Oeste 39 Oeste 0 897.6 2.7 78
2019-04-06 20:00:00 4.4 27 Oeste 52 Oeste 0 896.8 2.4 74
2019-04-06 19:00:00 4.7 33 Oeste 54 Oeste 0 895.9 2 73
2019-04-06 18:00:00 6.3 36 Oeste 61 Oeste 0 894.9 0.8 66
2019-04-06 17:00:00 6.8 37 Oeste 58 Oeste 0 894.4 0.4 64
2019-04-06 16:00:00 7.4 37 Oeste 54 Oeste 0 893.9 0.2 63
2019-04-06 15:00:00 6.9 27 Oeste 45 Oeste 0.1 894.1 0.1 68
2019-04-06 14:00:00 4.6 28 Sudoeste 52 Oeste 0.2 894 0.2 83
2019-04-06 13:00:00 5.6 23 Sur 41 Sudoeste 0 893.7 -0.2 68
2019-04-06 12:00:00 4.1 30 Sur 39 Sudoeste 0 894 0 76
2019-04-06 11:00:00 3.2 30 Sudoeste 41 Sudoeste 0 893.8 0 80
2019-04-06 10:00:00 1.9 26 Sudoeste 35 Sur 0 893.9 -0.2 87
2019-04-06 09:00:00 1.1 26 Sudoeste 42 Sudoeste 0 894 -0.5 90
2019-04-06 08:00:00 1.4 23 Sudoeste 35 Sudoeste 0 893.8 -0.9 91
2019-04-06 07:00:00 1.4 15 Sur 22 Sur 0 894.1 -0.8 93
2019-04-06 06:00:00 1 5 Sudeste 11 Sur 0 894.5 -0.7 91
2019-04-06 05:00:00 0.3 5 Sur 15 Sudoeste 0 894.7 -0.6 90
2019-04-06 04:00:00 0.4 7 Sur 11 Sur 0 894.9 -0.3 90
2019-04-06 03:00:00 0.6 6 Sur 13 Sudoeste 0 895.2 0 90
2019-04-06 02:00:00 0.8 11 Sudoeste 28 Oeste 0 895.3 0.1 89
2019-04-06 01:00:00 1 13 Oeste 22 Oeste 0 895.2 0.7 89
2019-04-06 00:00:00 1.5 11 Sudoeste 26 Oeste 0 895.2 1.2 86
2019-04-05 23:00:00 1.5 13 Sudoeste 21 Oeste 0 895.2 1.5 84
2019-04-05 22:00:00 2.2 15 Oeste 24 Oeste 0 894.5 1.7 80
2019-04-05 21:00:00 3.8 10 Oeste 39 Sudoeste 0.1 894 1.5 74
2019-04-05 20:00:00 5 28 Sudoeste 37 Sudoeste 0 893.7 1.3 70
2019-04-05 19:00:00 7.7 15 Sudeste 28 Sur 0 892.8 0.1 52
2019-04-05 18:00:00 7.2 10 Sur 21 Sur 0 892.5 -0.3 49
2019-04-05 17:00:00 6.2 18 Sur 28 Sur 0 892.4 -0.6 60
2019-04-05 16:00:00 6.9 8 Oeste 26 Sudeste 0 892.7 -0.8 49
2019-04-05 15:00:00 7.7 13 Sudoeste 24 Sudoeste 0 892.8 -0.5 46
2019-04-05 14:00:00 6.6 8 Sudoeste 24 Sudoeste 0 893 -0.1 55
2019-04-05 13:00:00 5 14 Oeste 24 Oeste 0 893.5 1 65
2019-04-05 12:00:00 4.2 14 Oeste 26 Oeste 0 893.3 1.3 71
2019-04-05 11:00:00 2.9 19 Oeste 28 Oeste 0 893.1 1.4 80
2019-04-05 10:00:00 1.6 13 Sudoeste 18 Sudoeste 0 892.5 0.8 92
2019-04-05 09:00:00 1.2 5 Sudoeste 13 Sudoeste 0 892 0.7 93
2019-04-05 08:00:00 0.9 7 Oeste 22 Oeste 0.3 891.7 0.2 95
2019-04-05 07:00:00 2.1 20 Sudoeste 32 Sudoeste 0.1 891.7 -0.1 95
2019-04-05 06:00:00 2.9 14 Sur 30 Sur 0 891.3 -1.3 96
2019-04-05 05:00:00 2.9 16 Sur 24 Sudoeste 0 891.5 -1.5 97
2019-04-05 04:00:00 2.7 17 Sur 24 Sur 0 891.8 -1.7 97
2019-04-05 03:00:00 2.3 15 Sur 26 Sur 0.1 892.6 -1.4 96
2019-04-05 02:00:00 2 18 Sur 30 Sur 1.6 893 -1.4 95
2019-04-05 01:00:00 2 15 Sur 28 Sur 1.9 893.5 -1.2 96
2019-04-05 00:00:00 2.1 20 Sur 32 Sur 1 894 -1 93
2019-04-04 23:00:00 2.3 18 Sur 35 Sur 0.5 894.4 -1 94
2019-04-04 22:00:00 2.3 23 Sur 37 Sur 0.4 894.7 -0.8 92
2019-04-04 21:00:00 2.7 29 Sur 63 Sur 0.4 895 -0.7 89
2019-04-04 20:00:00 3.4 29 Sudoeste 41 Sur 0.1 895.4 -0.6 86
2019-04-04 19:00:00 5.1 25 Sur 35 Sudoeste 0 895.5 -1.1 71
2019-04-04 18:00:00 6.2 22 Sudoeste 41 Sudoeste 0 895.7 -1.6 63
2019-04-04 17:00:00 7.4 16 Sudoeste 33 Sur 0 896 -2.1 42
2019-04-04 16:00:00 7.6 15 Sudoeste 32 Sudoeste 0 896.6 -2.2 39
2019-04-04 15:00:00 7.8 18 Sudoeste 37 Sudoeste 0 897.3 -2 35
2019-04-04 14:00:00 7.2 23 Sudoeste 37 Sudoeste 0 898.1 -1.3 41
2019-04-04 13:00:00 5.6 25 Oeste 39 Oeste 0 898.8 -0.9 53
2019-04-04 12:00:00 4.9 23 Sudoeste 35 Sudoeste 0 899.3 -0.3 55
2019-04-04 11:00:00 3.4 26 Oeste 39 Oeste 0 899.4 0.2 65
2019-04-04 10:00:00 1.4 28 Oeste 37 Oeste 0 899.7 0.7 78
2019-04-04 09:00:00 -1.6 10 Sudoeste 21 Oeste 0 899.6 0.3 89
2019-04-04 08:00:00 -2.6 10 Sudoeste 22 Oeste 0 899.2 -0.4 89
2019-04-04 07:00:00 -2.4 8 Oeste 13 Oeste 0 899 -1.3 89
2019-04-04 06:00:00 -2.4 10 Oeste 17 Oeste 0 899.3 -1.6 84
2019-04-04 05:00:00 -1.5 15 Oeste 22 Oeste 0 899.6 -2 77
2019-04-04 04:00:00 -1.9 13 Oeste 18 Oeste 0 900.3 -1.7 80
2019-04-04 03:00:00 -1.7 9 Oeste 15 Oeste 0 900.9 -1.6 80
2019-04-04 02:00:00 -2 9 Oeste 18 Oeste 0 901.6 -1.1 83
2019-04-04 01:00:00 -1.8 14 Oeste 21 Oeste 0 902 -0.2 77
2019-04-04 00:00:00 -0.9 7 Oeste 17 Noroeste 0 902.5 0.5 71
2019-04-03 23:00:00 0.7 13 Noroeste 30 Noroeste 0 902.7 1 63
2019-04-03 22:00:00 1.4 16 Noroeste 28 Oeste 0 902.2 0.9 56
2019-04-03 21:00:00 3.1 9 Oeste 35 Noroeste 0 902 0.5 45
2019-04-03 20:00:00 5.2 23 Noroeste 46 Noroeste 0 901.7 -0.1 42
2019-04-03 19:00:00 7.3 21 Noroeste 45 Noroeste 0 901.3 -1.1 36
2019-04-03 18:00:00 7.7 27 Noroeste 48 Noroeste 0 901.5 -1.1 37
2019-04-03 17:00:00 7.8 29 Noroeste 48 Noroeste 0 901.8 -1.2 36
2019-04-03 16:00:00 7.5 26 Norte 46 Noroeste 0 902.4 -0.9 42
2019-04-03 15:00:00 6.9 23 Noroeste 48 Noroeste 0 902.6 -1.3 46
2019-04-03 14:00:00 6.9 17 Noroeste 41 Noroeste 0 903 -1.1 45
2019-04-03 13:00:00 6.5 17 Noroeste 39 Norte 0 903.3 -1 45
2019-04-03 12:00:00 6.7 24 Noroeste 35 Oeste 0 903.9 -0.7 49
2019-04-03 11:00:00 5.5 22 Oeste 37 Oeste 0 904.1 -0.7 62
2019-04-03 10:00:00 4.1 26 Oeste 33 Oeste 0 904.3 -0.7 70
2019-04-03 09:00:00 1.3 17 Oeste 28 Oeste 0 904.6 -0.8 79
2019-04-03 08:00:00 0.8 15 Oeste 24 Oeste 0 904.8 -1.2 80
2019-04-03 07:00:00 1.1 15 Oeste 22 Oeste 0 905 -1.6 79
2019-04-03 06:00:00 2.2 16 Oeste 22 Oeste 0 905.4 -1.8 69
2019-04-03 05:00:00 3.2 14 Oeste 22 Oeste 0 906 -2 76
2019-04-03 04:00:00 3.3 11 Oeste 18 Oeste 0 906.6 -1.7 74
2019-04-03 03:00:00 4.2 10 Noroeste 17 Oeste 0 907.2 -1.5 69
2019-04-03 02:00:00 4.4 8 Oeste 13 Oeste 0 908 -0.4 69
2019-04-03 01:00:00 3.8 6 Oeste -- -- 0 908.3 0 76
2019-04-03 00:00:00 4.8 0 Calma 13 Norte 0 908.7 0.7 71
2019-04-02 23:00:00 6.1 8 Norte 15 Norte 0 908.4 0.6 70
2019-04-02 22:00:00 6.7 9 Norte 18 Norte 0 908.3 0.9 68
2019-04-02 21:00:00 8.4 12 Norte 24 Norte 0 908 0.5 63
2019-04-02 20:00:00 12.9 12 Norte 37 Norte 0 907.8 0 46
2019-04-02 19:00:00 15.4 27 Oeste 45 Oeste 0 907.4 -1.2 28
2019-04-02 18:00:00 16.5 23 Oeste 39 Oeste 0 907.5 -1.9 25
2019-04-02 17:00:00 16.7 25 Sudoeste 39 Sudoeste 0 907.8 -2.2 21
2019-04-02 16:00:00 16.1 23 Sudoeste 37 Sudoeste 0 908.6 -2.1 29
2019-04-02 15:00:00 15.1 14 Sur 26 Sudoeste 0 909.4 -1.7 29
2019-04-02 14:00:00 14.4 12 Sur 28 Sur 0 910 -1.1 35
2019-04-02 13:00:00 13.7 13 Sur 26 Sur 0 910.7 -0.1 37
2019-04-02 12:00:00 11.8 5 Sudeste 13 Sur 0 911.1 0.4 40
2019-04-02 11:00:00 10 8 Sudeste 13 Sur 0 911.1 0.7 45
2019-04-02 10:00:00 7 4 Sudeste 9 Noroeste 0 910.8 0.4 59
2019-04-02 09:00:00 2.3 6 Norte 11 Noroeste 0 910.7 0.4 73
2019-04-02 08:00:00 3.2 2 Sudoeste 9 Norte 0 910.4 0.1 69
2019-04-02 07:00:00 3.7 4 Noroeste 11 Noroeste 0 910.4 -0.3 69
2019-04-02 06:00:00 2.5 10 Noroeste 13 Norte 0 910.3 -0.5 75
2019-04-02 05:00:00 3.1 6 Norte 9 Norte 0 910.3 -0.7 71
2019-04-02 04:00:00 3.9 8 Noroeste 11 Noroeste 0 910.7 -0.1 71
2019-04-02 03:00:00 4.5 10 Noroeste 15 Noroeste 0 910.8 0.2 71
2019-04-02 02:00:00 4.9 10 Noroeste 15 Nordeste 0 911 0.8 69
2019-04-02 01:00:00 7.8 9 Norte 15 Nordeste 0 910.8 1.3 59
2019-04-02 00:00:00 8.3 12 Nordeste 15 Nordeste 0 910.6 1.9 60
2019-04-01 23:00:00 8.6 9 Norte 18 Norte 0 910.2 2.2 60
2019-04-01 22:00:00 10.5 13 Norte 22 Norte 0 909.5 1.9 53
2019-04-01 21:00:00 12.1 14 Norte 26 Norte 0 908.7 1.3 46
2019-04-01 20:00:00 15.8 12 Norte 22 Norte 0 908 0.4 32
2019-04-01 19:00:00 14.6 15 Oeste 26 Sudoeste 0 907.6 -0.2 36
2019-04-01 18:00:00 15.9 13 Sudoeste 21 Sur 0 907.4 -0.9 33
2019-04-01 17:00:00 16.5 7 Sudoeste 28 Sur 0 907.6 -1.4 30
2019-04-01 16:00:00 16.4 12 Sudeste 26 Sudeste 0 907.8 -1.6 32
2019-04-01 15:00:00 15.4 10 Sudoeste 26 Sur 0 908.3 -1.4 34
2019-04-01 14:00:00 14 12 Sur 24 Sur 0 909 -0.6 42
2019-04-01 13:00:00 12.9 12 Sudoeste 21 Oeste 0 909.4 -0.2 49
2019-04-01 12:00:00 11.7 8 Sudoeste 18 Sudoeste 0 909.7 0.2 56
2019-04-01 11:00:00 10 6 Sur 9 Sur 0 909.6 0.4 61
2019-04-01 10:00:00 7.4 6 Norte 13 Norte 0 909.6 0.6 74
2019-04-01 09:00:00 3.4 8 Norte 13 Norte 0 909.5 0.5 87
2019-04-01 08:00:00 1.9 9 Norte 11 Norte 0 909.2 0.1 87
2019-04-01 07:00:00 1.8 8 Norte 9 Norte 0 909 -0.4 85
2019-04-01 06:00:00 3.4 5 Norte 9 Norte 0 909 -0.5 83
2019-04-01 05:00:00 4.3 8 Noroeste 11 Noroeste 0 909.1 -0.2 78
2019-04-01 04:00:00 5.6 8 Oeste 9 Noroeste 0 909.4 0.1 76
2019-04-01 03:00:00 6 6 Oeste 9 Sudeste 0 909.5 0.3 71
2019-04-01 02:00:00 7.8 4 Sudeste 11 Sudeste 0 909.3 0.4 66
2019-04-01 01:00:00 9.1 7 Sudeste 13 Este 0 909.3 1.1 58
2019-04-01 00:00:00 10.1 8 Sudeste 15 Sudeste 0 909.2 1.7 52
2019-03-31 23:00:00 9.5 7 Norte 17 Norte 0 908.9 1.5 54
2019-03-31 22:00:00 9.8 11 Norte 21 Norte 0 908.2 1 53
2019-03-31 21:00:00 11.3 12 Norte 26 Norte 0 907.5 0.3 49
2019-03-31 20:00:00 13.2 18 Norte 32 Norte 0 907.4 -0.1 40
2019-03-31 19:00:00 15.9 14 Norte 24 Norte 0 907.2 -0.8 31
2019-03-31 18:00:00 15.7 15 Este 24 Este 0 907.2 -1.3 27
2019-03-31 17:00:00 16.1 8 Nordeste 28 Nordeste 0 907.5 -1.8 28
2019-03-31 16:00:00 15 15 Nordeste 28 Este 0 908 -1.9 28
2019-03-31 15:00:00 16.3 13 Sudeste 28 Sudeste 0 908.5 -1.8 26
2019-03-31 14:00:00 15.8 16 Sudeste 30 Sudeste 0 909.3 -1 31
2019-03-31 13:00:00 14.8 12 Este 21 Este 0 909.9 -0.2 34
2019-03-31 12:00:00 12.8 10 Este 18 Este 0 910.3 0.2 37
2019-03-31 11:00:00 10.8 9 Este 17 Este 0 910.3 0.4 41
2019-03-31 10:00:00 9.6 9 Nordeste 15 Nordeste 0 910.1 0.1 45
2019-03-31 09:00:00 5.8 6 Norte 13 Norte 0 910.1 -0.1 57
2019-03-31 08:00:00 4.6 9 Norte 17 Norte 0 909.9 -0.8 62
2019-03-31 07:00:00 4.3 12 Norte 17 Norte 0 910 -1.2 65
2019-03-31 06:00:00 5.1 11 Norte 18 Norte 0 910.2 -1.4 64
2019-03-31 05:00:00 5.2 12 Norte 17 Norte 0 910.7 -1.2 67
2019-03-31 03:00:00 6.3 11 Norte 15 Norte 0 911.6 -0.8 66
2019-03-31 01:00:00 6.7 8 Norte 13 Norte 0 911.9 -0.3 66
2019-03-31 00:00:00 6.6 11 Norte 15 Norte 0 912.3 0.2 67
2019-03-30 23:00:00 8.1 10 Norte 15 Norte 0 912.4 0.8 62
2019-03-30 22:00:00 8.9 11 Noroeste 21 Norte 0 912.2 0.9 58
2019-03-30 21:00:00 11.1 14 Norte 22 Norte 0 912.1 1.1 53
2019-03-30 20:00:00 12.8 10 Norte 17 Norte 0 911.6 0.5 42
2019-03-30 19:00:00 14.1 14 Norte 22 Norte 0 911.3 -0.4 39
2019-03-30 18:00:00 17 5 Sur 15 Nordeste 0 911 -1.2 23
2019-03-30 17:00:00 15.8 13 Sudeste 24 Sur 0 911.1 -1.9 27
2019-03-30 16:00:00 17.1 4 Sur 24 Sur 0 911.7 -2 27
2019-03-30 15:00:00 16.4 11 Sur 24 Sudeste 0 912.2 -2.2 30
2019-03-30 14:00:00 15.9 8 Sudeste 22 Este 0 913 -1.9 33
2019-03-30 13:00:00 14 10 Sudeste 18 Este 0 913.7 -1.1 35
2019-03-30 12:00:00 13.3 8 Este 18 Este 0 914.4 -0.6 36
2019-03-30 11:00:00 11.7 5 Este 28 Este 0 914.9 0.2 40
2019-03-30 10:00:00 9.8 16 Este 24 Nordeste 0 914.8 0.4 46
2019-03-30 09:00:00 7.8 14 Este 21 Este 0 915 0.7 49
2019-03-30 08:00:00 6.4 9 Nordeste 15 Nordeste 0 914.7 0.4 52
2019-03-30 07:00:00 6.1 12 Nordeste 15 Nordeste 0 914.4 0.2 52
2019-03-30 06:00:00 6 11 Nordeste 15 Nordeste 0 914.3 0 52
2019-03-30 05:00:00 6.4 12 Nordeste 17 Nordeste 0 914.3 -0.1 50
2019-03-30 04:00:00 4.4 9 Norte 15 Norte 0 914.2 -0.3 61
2019-03-30 03:00:00 4.9 7 Norte 9 Norte 0 914.3 -0.3 56
2019-03-30 02:00:00 7.5 0 Calma 11 Sudeste 0 914.4 -0.4 47
2019-03-30 01:00:00 6.9 0 Calma 9 Nordeste 0 914.5 -0.2 48
2019-03-30 00:00:00 9.4 8 Nordeste 11 Nordeste 0 914.6 0 39
2019-03-29 23:00:00 10.9 7 Sur 18 Sur 0 914.8 0.5 34
2019-03-29 22:00:00 11.7 12 Sur 18 Sur 0 914.7 0.7 32
2019-03-29 21:00:00 12 13 Sur 28 Sur 0 914.6 0.8 31
2019-03-29 20:00:00 13.8 13 Sur 18 Sur 0 914.3 0.3 30
2019-03-29 19:00:00 16.1 17 Sur 26 Sudeste 0 914 -0.5 25
2019-03-29 18:00:00 18 5 Sur 22 Sudoeste 0 913.8 -1.4 23
2019-03-29 17:00:00 17.7 17 Sudoeste 28 Sudoeste 0 914 -2 25
2019-03-29 16:00:00 17.5 14 Sudoeste 28 Sudoeste 0 914.5 -2.2 24
2019-03-29 15:00:00 16.9 10 Sur 24 Sur 0 915.2 -2 27
2019-03-29 14:00:00 15.6 12 Sur 24 Sur 0 916 -1.6 31
2019-03-29 13:00:00 14.4 12 Este 22 Sudeste 0 916.7 -1.2 34
2019-03-29 12:00:00 12.6 12 Este 21 Este 0 917.2 -0.9 38
2019-03-29 11:00:00 10.7 8 Este 17 Este 0 917.6 -0.5 43
2019-03-29 10:00:00 9.5 10 Este 15 Este 0 917.9 -0.1 44
2019-03-29 09:00:00 8.5 5 Este 11 Norte 0 918.1 0.3 44
2019-03-29 08:00:00 5.2 5 Nordeste 13 Norte 0 918.1 0.3 52
2019-03-29 07:00:00 2.3 9 Norte 13 Norte 0 918 -0.2 63
2019-03-29 06:00:00 1.4 5 Norte 11 Noroeste 0 917.8 -0.9 66
2019-03-29 05:00:00 2.4 8 Norte 13 Norte 0 917.8 -1.3 69
2019-03-29 04:00:00 1.9 8 Noroeste 15 Norte 0 918.2 -0.8 72
2019-03-29 03:00:00 2.7 6 Noroeste 9 Norte 0 918.7 -0.5 67
2019-03-29 02:00:00 4.1 3 Oeste 15 Sur 0 919.1 -0.4 60
2019-03-29 01:00:00 4.5 8 Noroeste 11 Norte 0 919 -0.5 58
2019-03-29 00:00:00 6.4 8 Norte 9 Norte 0 919.2 -0.2 49
2019-03-28 23:00:00 9.8 0 Calma 18 Este 0 919.5 0.6 38
2019-03-28 22:00:00 11 6 Nordeste 9 Nordeste 0 919.5 0.9 37
2019-03-28 21:00:00 11.2 4 Nordeste 30 Este 0 919.4 1 36
2019-03-28 20:00:00 13.8 17 Este 28 Este 0 918.9 0.4 30
2019-03-28 19:00:00 16.3 15 Este 30 Este 0 918.6 -0.4 26
2019-03-28 18:00:00 17.6 18 Este 32 Este 0 918.4 -1.1 21
2019-03-28 17:00:00 18.2 19 Sudeste 33 Sudeste 0 918.5 -1.8 19
2019-03-28 16:00:00 17.9 20 Sudeste 37 Sudeste 0 919 -1.9 17
2019-03-28 15:00:00 18 19 Sudeste 37 Sudeste 0 919.5 -2.1 15
2019-03-28 14:00:00 17.2 13 Sudeste 28 Sudeste 0 920.3 -1.7 17
2019-03-28 13:00:00 15.8 14 Este 30 Este 0 920.9 -1.4 21
2019-03-28 12:00:00 14.3 10 Este 18 Este 0 921.6 -0.9 23
2019-03-28 11:00:00 11.8 3 Este 11 Este 0 922 -0.2 29
2019-03-28 10:00:00 9.1 2 Este 11 Sudeste 0 922.3 0.3 33
2019-03-28 09:00:00 6.4 6 Sudeste 13 Sudeste 0 922.5 0.9 37
2019-03-28 08:00:00 0.6 7 Oeste 9 Oeste 0 922.2 0.7 58
2019-03-28 07:00:00 0.5 0 Calma 9 Oeste 0 922 0.6 57
2019-03-28 06:00:00 0.3 6 Oeste 13 Oeste 0 921.6 0.1 58
2019-03-28 05:00:00 1.1 4 Oeste 9 Oeste 0 921.5 0 54
2019-03-28 04:00:00 1.3 6 Noroeste 9 Noroeste 0 921.4 0.1 55
2019-03-28 03:00:00 1.8 3 Noroeste 5 Noroeste 0 921.5 0.4 55
2019-03-28 02:00:00 4.4 0 Calma 9 Sudeste 0 921.5 0.9 46
2019-03-28 01:00:00 6.1 6 Sudeste 13 Sudeste 0 921.3 0.9 38
2019-03-28 00:00:00 7.6 7 Este 17 Norte 0 921.1 1.1 43
2019-03-27 23:00:00 8.4 11 Norte 21 Norte 0 920.6 1.1 42
2019-03-27 22:00:00 9 12 Norte 26 Norte 0 920.4 1.8 42
2019-03-27 21:00:00 12.4 17 Norte 28 Norte 0 920 1.9 28
2019-03-27 20:00:00 14.5 16 Nordeste 30 Nordeste 0 919.5 1.4 22
2019-03-27 19:00:00 17.1 22 Nordeste 35 Este 0 918.6 0.6 18
2019-03-27 18:00:00 18.1 25 Este 41 Este 0 918.1 -0.4 15
2019-03-27 17:00:00 18.7 20 Este 33 Este 0 918.1 -1 13
2019-03-27 16:00:00 19.7 15 Este 41 Sur 0 918 -1.5 12
2019-03-27 15:00:00 19.1 18 Sudeste 33 Sudeste 0 918.5 -1.3 10
2019-03-27 14:00:00 18.1 13 Sur 30 Nordeste 0 919.1 -1 12
2019-03-27 13:00:00 17.1 7 Nordeste 24 Este 0 919.5 -0.2 11
2019-03-27 12:00:00 15.5 11 Este 26 Este 0 919.8 0.2 10
2019-03-27 11:00:00 13.5 14 Este 18 Este 0 920.1 0.8 11
2019-03-27 10:00:00 12 0 Calma 11 Norte 0 919.7 0.9 13
2019-03-27 09:00:00 8.2 9 Norte 11 Norte 0 919.6 1.3 19
2019-03-27 08:00:00 1 7 Noroeste 9 Norte 0 919.3 1.4 37
2019-03-27 07:00:00 -0.5 5 Sur 11 Norte 0 918.8 1 34
2019-03-27 06:00:00 0.6 10 Norte 13 Norte 0 918.3 0.4 33
2019-03-27 05:00:00 2.6 8 Oeste 11 Oeste 0 917.9 0 24
2019-03-27 04:00:00 2.5 9 Sudoeste 13 Oeste 0 917.8 -0.6 23
2019-03-27 03:00:00 2.1 6 Norte 11 Norte 0 917.9 -0.5 29
2019-03-27 02:00:00 2.4 9 Norte 22 Norte 0 917.9 -0.2 31
2019-03-27 01:00:00 5 12 Nordeste 15 Nordeste 0 918.4 0.8 23
2019-03-27 00:00:00 5.9 11 Norte 18 Nordeste 0 918.4 1 24